sensor_id;sensor_type;location;lat;lon;timestamp;pressure;altitude;pressure_sealevel;temperature;humidity
24762;BME280;12865;51.934;10.330;2024-02-04T00:00:51;99561.59;;;9.01;100.00
24762;BME280;12865;51.934;10.330;2024-02-04T00:03:37;99554.69;;;8.99;100.00
24762;BME280;12865;51.934;10.330;2024-02-04T00:06:23;99549.00;;;8.92;100.00
24762;BME280;12865;51.934;10.330;2024-02-04T00:09:08;99557.59;;;8.85;100.00
24762;BME280;12865;51.934;10.330;2024-02-04T00:11:54;99554.22;;;8.83;100.00
24762;BME280;12865;51.934;10.330;2024-02-04T00:14:40;99550.09;;;8.79;100.00
24762;BME280;12865;51.934;10.330;2024-02-04T00:17:26;99544.78;;;8.79;100.00
24762;BME280;12865;51.934;10.330;2024-02-04T00:20:15;99541.88;;;8.71;100.00
24762;BME280;12865;51.934;10.330;2024-02-04T00:23:01;99550.47;;;8.74;100.00
24762;BME280;12865;51.934;10.330;2024-02-04T00:25:46;99554.31;;;8.70;100.00
24762;BME280;12865;51.934;10.330;2024-02-04T00:28:32;99547.31;;;8.80;100.00
24762;BME280;12865;51.934;10.330;2024-02-04T00:31:17;99544.78;;;8.68;100.00
24762;BME280;12865;51.934;10.330;2024-02-04T00:34:03;99544.66;;;8.69;100.00
24762;BME280;12865;51.934;10.330;2024-02-04T00:36:50;99544.66;;;8.69;100.00
24762;BME280;12865;51.934;10.330;2024-02-04T00:39:36;99535.47;;;8.73;100.00
24762;BME280;12865;51.934;10.330;2024-02-04T00:42:21;99547.22;;;8.82;100.00
24762;BME280;12865;51.934;10.330;2024-02-04T00:45:07;99528.34;;;8.85;100.00
24762;BME280;12865;51.934;10.330;2024-02-04T00:47:53;99535.47;;;8.84;100.00
24762;BME280;12865;51.934;10.330;2024-02-04T00:50:38;99527.84;;;8.91;100.00
24762;BME280;12865;51.934;10.330;2024-02-04T00:53:24;99500.69;;;8.87;100.00
24762;BME280;12865;51.934;10.330;2024-02-04T00:56:11;99516.75;;;8.86;100.00
24762;BME280;12865;51.934;10.330;2024-02-04T00:58:57;99518.19;;;8.79;100.00
24762;BME280;12865;51.934;10.330;2024-02-04T01:01:42;99518.56;;;8.85;100.00
24762;BME280;12865;51.934;10.330;2024-02-04T01:04:28;99496.22;;;8.88;100.00
24762;BME280;12865;51.934;10.330;2024-02-04T01:07:14;99512.63;;;8.93;100.00
24762;BME280;12865;51.934;10.330;2024-02-04T01:09:59;99511.31;;;8.87;100.00
24762;BME280;12865;51.934;10.330;2024-02-04T01:12:45;99516.25;;;8.92;100.00
24762;BME280;12865;51.934;10.330;2024-02-04T01:15:31;99500.91;;;8.95;100.00
24762;BME280;12865;51.934;10.330;2024-02-04T01:18:16;99495.47;;;8.97;100.00
24762;BME280;12865;51.934;10.330;2024-02-04T01:21:02;99491.84;;;8.98;100.00
24762;BME280;12865;51.934;10.330;2024-02-04T01:23:48;99492.81;;;8.86;100.00
24762;BME280;12865;51.934;10.330;2024-02-04T01:26:33;99480.88;;;8.80;100.00
24762;BME280;12865;51.934;10.330;2024-02-04T01:29:19;99488.22;;;8.77;100.00
24762;BME280;12865;51.934;10.330;2024-02-04T01:32:05;99493.53;;;8.77;100.00
24762;BME280;12865;51.934;10.330;2024-02-04T01:34:51;99494.66;;;8.74;100.00
24762;BME280;12865;51.934;10.330;2024-02-04T01:37:36;99492.84;;;8.75;100.00
24762;BME280;12865;51.934;10.330;2024-02-04T01:40:22;99495.00;;;8.81;100.00
24762;BME280;12865;51.934;10.330;2024-02-04T01:43:08;99498.00;;;8.76;100.00
24762;BME280;12865;51.934;10.330;2024-02-04T01:45:54;99488.00;;;8.80;100.00
24762;BME280;12865;51.934;10.330;2024-02-04T01:48:39;99498.59;;;8.91;100.00
24762;BME280;12865;51.934;10.330;2024-02-04T01:51:25;99484.59;;;8.78;100.00
24762;BME280;12865;51.934;10.330;2024-02-04T01:54:11;99488.00;;;8.80;100.00
24762;BME280;12865;51.934;10.330;2024-02-04T01:56:58;99501.53;;;8.88;100.00
24762;BME280;12865;51.934;10.330;2024-02-04T01:59:47;99503.22;;;8.89;100.00
24762;BME280;12865;51.934;10.330;2024-02-04T02:02:38;99502.63;;;8.96;100.00
24762;BME280;12865;51.934;10.330;2024-02-04T02:05:25;99496.31;;;8.97;100.00
24762;BME280;12865;51.934;10.330;2024-02-04T02:08:11;99507.69;;;8.88;100.00
24762;BME280;12865;51.934;10.330;2024-02-04T02:11:03;99507.19;;;8.94;100.00
24762;BME280;12865;51.934;10.330;2024-02-04T02:13:57;99498.72;;;9.00;100.00
24762;BME280;12865;51.934;10.330;2024-02-04T02:16:46;99482.91;;;8.88;100.00
24762;BME280;12865;51.934;10.330;2024-02-04T02:19:50;99482.81;;;8.89;100.00
24762;BME280;12865;51.934;10.330;2024-02-04T02:22:57;99474.22;;;8.86;100.00
24762;BME280;12865;51.934;10.330;2024-02-04T02:25:49;99477.25;;;8.81;100.00
24762;BME280;12865;51.934;10.330;2024-02-04T02:28:37;99475.91;;;8.87;100.00
24762;BME280;12865;51.934;10.330;2024-02-04T02:31:22;99470.13;;;8.82;100.00
24762;BME280;12865;51.934;10.330;2024-02-04T02:34:09;99451.16;;;8.75;100.00
24762;BME280;12865;51.934;10.330;2024-02-04T02:37:26;99460.78;;;8.76;100.00
24762;BME280;12865;51.934;10.330;2024-02-04T02:40:21;99454.03;;;8.72;100.00
24762;BME280;12865;51.934;10.330;2024-02-04T02:43:10;99452.69;;;8.78;100.00
24762;BME280;12865;51.934;10.330;2024-02-04T02:45:57;99447.28;;;8.68;100.00
24762;BME280;12865;51.934;10.330;2024-02-04T02:48:43;99445.09;;;8.73;100.00
24762;BME280;12865;51.934;10.330;2024-02-04T02:51:28;99452.84;;;8.65;100.00
24762;BME280;12865;51.934;10.330;2024-02-04T02:54:14;99445.13;;;8.62;100.00
24762;BME280;12865;51.934;10.330;2024-02-04T02:57:00;99443.06;;;8.65;100.00
24762;BME280;12865;51.934;10.330;2024-02-04T02:59:45;99442.09;;;8.66;100.00
24762;BME280;12865;51.934;10.330;2024-02-04T03:02:32;99439.19;;;8.70;100.00
24762;BME280;12865;51.934;10.330;2024-02-04T03:05:17;99443.88;;;8.77;100.00
24762;BME280;12865;51.934;10.330;2024-02-04T03:08:04;99433.84;;;8.70;100.00
24762;BME280;12865;51.934;10.330;2024-02-04T03:10:49;99445.25;;;8.60;100.00
24762;BME280;12865;51.934;10.330;2024-02-04T03:13:38;99439.19;;;8.58;100.00
24762;BME280;12865;51.934;10.330;2024-02-04T03:16:24;99445.25;;;8.60;100.00
24762;BME280;12865;51.934;10.330;2024-02-04T03:19:10;99441.84;;;8.58;100.00
24762;BME280;12865;51.934;10.330;2024-02-04T03:21:56;99433.16;;;8.56;100.00
24762;BME280;12865;51.934;10.330;2024-02-04T03:24:41;99439.44;;;8.55;100.00
24762;BME280;12865;51.934;10.330;2024-02-04T03:27:27;99427.13;;;8.54;100.00
24762;BME280;12865;51.934;10.330;2024-02-04T03:30:13;99421.56;;;8.57;100.00
24762;BME280;12865;51.934;10.330;2024-02-04T03:32:58;99417.34;;;8.66;100.00
24762;BME280;12865;51.934;10.330;2024-02-04T03:35:45;99441.13;;;8.56;100.00
24762;BME280;12865;51.934;10.330;2024-02-04T03:38:31;99437.75;;;8.54;100.00
24762;BME280;12865;51.934;10.330;2024-02-04T03:41:17;99425.31;;;8.55;100.00
24762;BME280;12865;51.934;10.330;2024-02-04T03:44:03;99429.44;;;8.48;100.00
24762;BME280;12865;51.934;10.330;2024-02-04T03:46:49;99420.25;;;8.52;100.00
24762;BME280;12865;51.934;10.330;2024-02-04T03:49:35;99427.13;;;8.43;100.00
24762;BME280;12865;51.934;10.330;2024-02-04T03:52:21;99431.34;;;8.46;100.00
24762;BME280;12865;51.934;10.330;2024-02-04T03:55:06;99425.81;;;8.38;100.00
24762;BME280;12865;51.934;10.330;2024-02-04T03:57:54;99426.38;;;8.41;100.00
24762;BME280;12865;51.934;10.330;2024-02-04T04:00:39;99429.88;;;8.42;100.00
24762;BME280;12865;51.934;10.330;2024-02-04T04:03:25;99424.84;;;8.39;100.00
24762;BME280;12865;51.934;10.330;2024-02-04T04:06:11;99417.34;;;8.44;100.00
24762;BME280;12865;51.934;10.330;2024-02-04T04:08:57;99413.00;;;8.54;100.00
24762;BME280;12865;51.934;10.330;2024-02-04T04:11:44;99404.78;;;8.46;100.00
24762;BME280;12865;51.934;10.330;2024-02-04T04:14:30;99405.53;;;8.48;100.00
24762;BME280;12865;51.934;10.330;2024-02-04T04:17:15;99411.66;;;8.37;100.00
24762;BME280;12865;51.934;10.330;2024-02-04T04:20:01;99392.22;;;8.37;100.00
24762;BME280;12865;51.934;10.330;2024-02-04T04:22:47;99391.84;;;8.41;100.00
24762;BME280;12865;51.934;10.330;2024-02-04T04:25:33;99387.66;;;8.39;100.00
24762;BME280;12865;51.934;10.330;2024-02-04T04:28:19;99395.34;;;8.42;100.00
24762;BME280;12865;51.934;10.330;2024-02-04T04:31:04;99398.63;;;8.45;100.00
24762;BME280;12865;51.934;10.330;2024-02-04T04:33:50;99396.22;;;8.42;100.00
24762;BME280;12865;51.934;10.330;2024-02-04T04:39:05;99379.78;;;8.37;100.00
24762;BME280;12865;51.934;10.330;2024-02-04T04:41:51;99377.00;;;8.50;100.00
24762;BME280;12865;51.934;10.330;2024-02-04T04:44:36;99379.31;;;8.43;100.00
24762;BME280;12865;51.934;10.330;2024-02-04T04:47:22;99391.88;;;8.52;100.00
24762;BME280;12865;51.934;10.330;2024-02-04T04:50:08;99389.78;;;8.56;100.00
24762;BME280;12865;51.934;10.330;2024-02-04T04:52:54;99381.69;;;8.69;100.00
24762;BME280;12865;51.934;10.330;2024-02-04T04:55:39;99364.63;;;8.71;100.00
24762;BME280;12865;51.934;10.330;2024-02-04T04:58:25;99357.50;;;8.83;100.00
24762;BME280;12865;51.934;10.330;2024-02-04T05:01:11;99380.25;;;8.76;100.00
24762;BME280;12865;51.934;10.330;2024-02-04T05:03:56;99376.13;;;8.83;100.00
24762;BME280;12865;51.934;10.330;2024-02-04T05:06:42;99375.84;;;8.86;100.00
24762;BME280;12865;51.934;10.330;2024-02-04T05:09:28;99382.22;;;8.94;100.00
24762;BME280;12865;51.934;10.330;2024-02-04T05:12:13;99385.22;;;9.01;100.00
24762;BME280;12865;51.934;10.330;2024-02-04T05:14:59;99386.19;;;9.00;100.00
24762;BME280;12865;51.934;10.330;2024-02-04T05:17:45;99386.19;;;9.00;100.00
24762;BME280;12865;51.934;10.330;2024-02-04T05:20:30;99380.75;;;9.01;100.00
24762;BME280;12865;51.934;10.330;2024-02-04T05:23:16;99381.00;;;8.98;100.00
24762;BME280;12865;51.934;10.330;2024-02-04T05:26:03;99406.03;;;8.96;100.00
24762;BME280;12865;51.934;10.330;2024-02-04T05:28:49;99403.13;;;8.99;100.00
24762;BME280;12865;51.934;10.330;2024-02-04T05:31:40;99396.59;;;9.03;100.00
24762;BME280;12865;51.934;10.330;2024-02-04T05:34:27;99409.16;;;9.01;100.00
24762;BME280;12865;51.934;10.330;2024-02-04T05:37:12;99392.59;;;8.97;100.00
24762;BME280;12865;51.934;10.330;2024-02-04T05:39:58;99407.47;;;9.00;100.00
24762;BME280;12865;51.934;10.330;2024-02-04T05:42:45;99415.91;;;9.05;100.00
24762;BME280;12865;51.934;10.330;2024-02-04T05:45:31;99399.75;;;8.97;100.00
24762;BME280;12865;51.934;10.330;2024-02-04T05:48:16;99409.56;;;8.96;100.00
24762;BME280;12865;51.934;10.330;2024-02-04T05:51:02;99422.00;;;8.96;100.00
24762;BME280;12865;51.934;10.330;2024-02-04T05:53:48;99414.97;;;8.95;100.00
24762;BME280;12865;51.934;10.330;2024-02-04T05:56:34;99418.72;;;9.03;100.00
24762;BME280;12865;51.934;10.330;2024-02-04T05:59:20;99419.84;;;8.90;100.00
24762;BME280;12865;51.934;10.330;2024-02-04T06:02:05;99414.25;;;8.93;100.00
24762;BME280;12865;51.934;10.330;2024-02-04T06:04:51;99412.44;;;8.93;100.00
24762;BME280;12865;51.934;10.330;2024-02-04T06:07:37;99398.19;;;8.83;100.00
24762;BME280;12865;51.934;10.330;2024-02-04T06:10:23;99388.28;;;8.96;100.00
24762;BME280;12865;51.934;10.330;2024-02-04T06:13:08;99395.63;;;8.93;100.00
24762;BME280;12865;51.934;10.330;2024-02-04T06:15:54;99392.41;;;8.89;100.00
24762;BME280;12865;51.934;10.330;2024-02-04T06:18:39;99380.78;;;8.90;100.00
24762;BME280;12865;51.934;10.330;2024-02-04T06:21:25;99376.69;;;8.86;100.00
24762;BME280;12865;51.934;10.330;2024-02-04T06:24:11;99373.66;;;8.91;100.00
24762;BME280;12865;51.934;10.330;2024-02-04T06:26:58;99369.78;;;8.95;100.00
24762;BME280;12865;51.934;10.330;2024-02-04T06:29:43;99360.22;;;8.92;100.00
24762;BME280;12865;51.934;10.330;2024-02-04T06:32:29;99360.63;;;8.88;100.00
24762;BME280;12865;51.934;10.330;2024-02-04T06:35:15;99355.25;;;8.99;100.00
24762;BME280;12865;51.934;10.330;2024-02-04T06:38:00;99374.13;;;8.96;100.00
24762;BME280;12865;51.934;10.330;2024-02-04T06:40:46;99362.31;;;9.21;100.00
24762;BME280;12865;51.934;10.330;2024-02-04T06:43:32;99349.41;;;9.05;100.00
24762;BME280;12865;51.934;10.330;2024-02-04T06:46:25;99377.34;;;9.11;100.00
24762;BME280;12865;51.934;10.330;2024-02-04T06:49:11;99362.09;;;9.13;100.00
24762;BME280;12865;51.934;10.330;2024-02-04T06:51:57;99366.50;;;9.02;100.00
24762;BME280;12865;51.934;10.330;2024-02-04T06:54:43;99365.66;;;9.02;100.00
24762;BME280;12865;51.934;10.330;2024-02-04T06:57:28;99352.00;;;8.95;100.00
24762;BME280;12865;51.934;10.330;2024-02-04T07:00:14;99342.28;;;9.05;100.00
24762;BME280;12865;51.934;10.330;2024-02-04T07:03:01;99350.03;;;9.09;100.00
24762;BME280;12865;51.934;10.330;2024-02-04T07:05:46;99351.22;;;9.04;100.00
24762;BME280;12865;51.934;10.330;2024-02-04T07:08:32;99339.50;;;9.07;100.00
24762;BME280;12865;51.934;10.330;2024-02-04T07:11:18;99345.16;;;9.14;100.00
24762;BME280;12865;51.934;10.330;2024-02-04T07:14:03;99365.47;;;9.15;100.00
24762;BME280;12865;51.934;10.330;2024-02-04T07:16:49;99370.19;;;9.11;100.00
24762;BME280;12865;51.934;10.330;2024-02-04T07:19:35;99357.44;;;9.26;100.00
24762;BME280;12865;51.934;10.330;2024-02-04T07:22:21;99360.72;;;9.18;100.00
24762;BME280;12865;51.934;10.330;2024-02-04T07:25:07;99360.72;;;9.18;100.00
24762;BME280;12865;51.934;10.330;2024-02-04T07:27:54;99338.88;;;9.15;100.00
24762;BME280;12865;51.934;10.330;2024-02-04T07:30:40;99352.22;;;9.03;100.00
24762;BME280;12865;51.934;10.330;2024-02-04T07:33:25;99335.78;;;8.98;100.00
24762;BME280;12865;51.934;10.330;2024-02-04T07:36:11;99330.63;;;8.97;100.00
24762;BME280;12865;51.934;10.330;2024-02-04T07:38:57;99333.41;;;8.95;100.00
24762;BME280;12865;51.934;10.330;2024-02-04T07:41:43;99336.53;;;9.00;100.00
24762;BME280;12865;51.934;10.330;2024-02-04T07:44:28;99342.06;;;8.97;100.00
24762;BME280;12865;51.934;10.330;2024-02-04T07:47:14;99334.25;;;8.96;100.00
24762;BME280;12865;51.934;10.330;2024-02-04T07:50:00;99330.13;;;9.03;100.00
24762;BME280;12865;51.934;10.330;2024-02-04T07:52:46;99327.31;;;9.04;100.00
24762;BME280;12865;51.934;10.330;2024-02-04T07:55:32;99336.41;;;9.02;100.00
24762;BME280;12865;51.934;10.330;2024-02-04T07:58:17;99328.16;;;9.05;100.00
24762;BME280;12865;51.934;10.330;2024-02-04T08:01:03;99337.13;;;9.04;100.00
24762;BME280;12865;51.934;10.330;2024-02-04T08:03:49;99337.94;;;9.04;100.00
24762;BME280;12865;51.934;10.330;2024-02-04T08:06:35;99331.81;;;9.04;100.00
24762;BME280;12865;51.934;10.330;2024-02-04T08:09:20;99321.16;;;9.04;100.00
24762;BME280;12865;51.934;10.330;2024-02-04T08:12:06;99329.84;;;9.06;100.00
24762;BME280;12865;51.934;10.330;2024-02-04T08:14:53;99310.25;;;9.07;100.00
24762;BME280;12865;51.934;10.330;2024-02-04T08:17:38;99329.94;;;9.16;100.00
24762;BME280;12865;51.934;10.330;2024-02-04T08:20:24;99317.28;;;9.08;100.00
24762;BME280;12865;51.934;10.330;2024-02-04T08:23:09;99318.56;;;9.14;100.00
24762;BME280;12865;51.934;10.330;2024-02-04T08:25:55;99315.44;;;9.09;100.00
24762;BME280;12865;51.934;10.330;2024-02-04T08:28:42;99306.13;;;9.14;100.00
24762;BME280;12865;51.934;10.330;2024-02-04T08:31:32;99293.66;;;9.15;100.00
24762;BME280;12865;51.934;10.330;2024-02-04T08:34:19;99313.25;;;9.14;100.00
24762;BME280;12865;51.934;10.330;2024-02-04T08:37:09;99296.66;;;9.21;100.00
24762;BME280;12865;51.934;10.330;2024-02-04T08:39:55;99317.59;;;9.15;100.00
24762;BME280;12865;51.934;10.330;2024-02-04T08:42:40;99298.75;;;9.18;100.00
24762;BME280;12865;51.934;10.330;2024-02-04T08:45:26;99317.00;;;9.11;100.00
24762;BME280;12865;51.934;10.330;2024-02-04T08:48:12;99294.06;;;9.10;100.00
24762;BME280;12865;51.934;10.330;2024-02-04T08:50:58;99294.22;;;8.97;100.00
24762;BME280;12865;51.934;10.330;2024-02-04T08:53:44;99312.03;;;8.86;100.00
24762;BME280;12865;51.934;10.330;2024-02-04T08:56:29;99317.13;;;8.89;100.00
24762;BME280;12865;51.934;10.330;2024-02-04T08:59:15;99319.03;;;8.87;100.00
24762;BME280;12865;51.934;10.330;2024-02-04T09:02:01;99322.16;;;8.92;100.00
24762;BME280;12865;51.934;10.330;2024-02-04T09:04:46;99329.22;;;8.82;100.00
24762;BME280;12865;51.934;10.330;2024-02-04T09:07:32;99349.94;;;8.67;100.00
24762;BME280;12865;51.934;10.330;2024-02-04T09:10:18;99355.47;;;8.75;100.00
24762;BME280;12865;51.934;10.330;2024-02-04T09:13:03;99330.72;;;8.63;100.00
24762;BME280;12865;51.934;10.330;2024-02-04T09:15:50;99346.19;;;8.58;100.00
24762;BME280;12865;51.934;10.330;2024-02-04T09:18:36;99336.03;;;8.63;100.00
24762;BME280;12865;51.934;10.330;2024-02-04T09:21:22;99337.22;;;8.71;100.00
24762;BME280;12865;51.934;10.330;2024-02-04T09:24:07;99335.66;;;8.68;100.00
24762;BME280;12865;51.934;10.330;2024-02-04T09:26:53;99331.66;;;8.62;100.00
24762;BME280;12865;51.934;10.330;2024-02-04T09:29:39;99348.25;;;8.55;100.00
24762;BME280;12865;51.934;10.330;2024-02-04T09:32:25;99346.56;;;8.54;100.00
24762;BME280;12865;51.934;10.330;2024-02-04T09:35:10;99346.94;;;8.49;100.00
24762;BME280;12865;51.934;10.330;2024-02-04T09:37:56;99345.59;;;8.55;100.00
24762;BME280;12865;51.934;10.330;2024-02-04T09:40:42;99342.81;;;8.56;100.00
24762;BME280;12865;51.934;10.330;2024-02-04T09:43:28;99334.72;;;8.58;100.00
24762;BME280;12865;51.934;10.330;2024-02-04T09:46:14;99338.44;;;8.66;100.00
24762;BME280;12865;51.934;10.330;2024-02-04T09:49:00;99332.53;;;8.63;100.00
24762;BME280;12865;51.934;10.330;2024-02-04T09:51:48;99338.44;;;8.66;100.00
24762;BME280;12865;51.934;10.330;2024-02-04T09:54:59;99334.56;;;8.71;100.00
24762;BME280;12865;51.934;10.330;2024-02-04T09:57:45;99331.31;;;8.67;100.00
24762;BME280;12865;51.934;10.330;2024-02-04T10:00:33;99327.56;;;8.70;100.00
24762;BME280;12865;51.934;10.330;2024-02-04T10:03:18;99333.13;;;8.66;100.00
24762;BME280;12865;51.934;10.330;2024-02-04T10:06:04;99334.09;;;8.65;100.00
24762;BME280;12865;51.934;10.330;2024-02-04T10:08:50;99331.44;;;8.65;100.00
24762;BME280;12865;51.934;10.330;2024-02-04T10:11:36;99333.94;;;8.78;100.00
24762;BME280;12865;51.934;10.330;2024-02-04T10:14:22;99328.53;;;8.69;100.00
24762;BME280;12865;51.934;10.330;2024-02-04T10:17:08;99324.19;;;8.68;100.00
24762;BME280;12865;51.934;10.330;2024-02-04T10:19:54;99330.47;;;8.66;100.00
24762;BME280;12865;51.934;10.330;2024-02-04T10:22:39;99322.38;;;8.68;100.00
24762;BME280;12865;51.934;10.330;2024-02-04T10:25:25;99323.56;;;8.75;100.00
24762;BME280;12865;51.934;10.330;2024-02-04T10:28:11;99333.00;;;8.68;100.00
24762;BME280;12865;51.934;10.330;2024-02-04T10:30:57;99333.59;;;8.72;100.00
24762;BME280;12865;51.934;10.330;2024-02-04T10:33:43;99324.53;;;8.63;100.00
24762;BME280;12865;51.934;10.330;2024-02-04T10:36:30;99324.19;;;8.68;100.00
24762;BME280;12865;51.934;10.330;2024-02-04T10:39:16;99320.75;;;8.77;100.00
24762;BME280;12865;51.934;10.330;2024-02-04T10:42:02;99314.47;;;8.78;100.00
24762;BME280;12865;51.934;10.330;2024-02-04T10:44:50;99309.78;;;8.70;100.00
24762;BME280;12865;51.934;10.330;2024-02-04T10:47:38;99319.56;;;8.70;100.00
24762;BME280;12865;51.934;10.330;2024-02-04T10:50:24;99329.84;;;8.74;100.00
24762;BME280;12865;51.934;10.330;2024-02-04T10:53:14;99320.56;;;8.69;100.00
24762;BME280;12865;51.934;10.330;2024-02-04T10:56:02;99327.66;;;8.79;100.00
24762;BME280;12865;51.934;10.330;2024-02-04T10:58:49;99332.13;;;8.79;100.00
24762;BME280;12865;51.934;10.330;2024-02-04T11:01:35;99323.56;;;8.75;100.00
24762;BME280;12865;51.934;10.330;2024-02-04T11:04:22;99317.13;;;8.78;100.00
24762;BME280;12865;51.934;10.330;2024-02-04T11:07:09;99321.03;;;8.74;100.00
24762;BME280;12865;51.934;10.330;2024-02-04T11:09:55;99326.94;;;8.77;100.00
24762;BME280;12865;51.934;10.330;2024-02-04T11:12:44;99312.09;;;8.75;100.00
24762;BME280;12865;51.934;10.330;2024-02-04T11:15:35;99292.75;;;8.73;100.00
24762;BME280;12865;51.934;10.330;2024-02-04T11:25:19;99288.16;;;8.75;100.00
24762;BME280;12865;51.934;10.330;2024-02-04T11:28:12;99297.34;;;8.71;100.00
24762;BME280;12865;51.934;10.330;2024-02-04T11:30:58;99293.16;;;8.68;100.00
24762;BME280;12865;51.934;10.330;2024-02-04T11:33:44;99289.50;;;8.69;100.00
24762;BME280;12865;51.934;10.330;2024-02-04T11:36:40;99287.56;;;8.71;100.00
24762;BME280;12865;51.934;10.330;2024-02-04T11:39:26;99269.22;;;8.68;100.00
24762;BME280;12865;51.934;10.330;2024-02-04T11:42:15;99273.81;;;8.66;100.00
24762;BME280;12865;51.934;10.330;2024-02-04T11:45:11;99274.06;;;8.63;100.00
24762;BME280;12865;51.934;10.330;2024-02-04T11:48:01;99278.84;;;8.69;100.00
24762;BME280;12865;51.934;10.330;2024-02-04T11:50:53;99254.81;;;8.71;100.00
24762;BME280;12865;51.934;10.330;2024-02-04T11:53:39;99258.44;;;8.70;100.00
24762;BME280;12865;51.934;10.330;2024-02-04T11:56:24;99261.81;;;8.72;100.00
24762;BME280;12865;51.934;10.330;2024-02-04T11:59:11;99276.31;;;8.79;100.00
24762;BME280;12865;51.934;10.330;2024-02-04T12:02:05;99282.16;;;8.93;100.00
24762;BME280;12865;51.934;10.330;2024-02-04T12:04:51;99264.91;;;8.88;100.00
24762;BME280;12865;51.934;10.330;2024-02-04T12:07:38;99263.94;;;8.89;100.00
24762;BME280;12865;51.934;10.330;2024-02-04T12:10:25;99270.97;;;8.90;100.00
24762;BME280;12865;51.934;10.330;2024-02-04T12:13:11;99282.59;;;8.78;100.00
24762;BME280;12865;51.934;10.330;2024-02-04T12:15:57;99255.88;;;8.79;100.00
24762;BME280;12865;51.934;10.330;2024-02-04T12:18:52;99239.28;;;8.87;100.00
24762;BME280;12865;51.934;10.330;2024-02-04T12:21:38;99260.38;;;8.99;100.00
24762;BME280;12865;51.934;10.330;2024-02-04T12:24:23;99257.84;;;8.98;100.00
24762;BME280;12865;51.934;10.330;2024-02-04T12:27:09;99250.25;;;8.93;100.00
24762;BME280;12865;51.934;10.330;2024-02-04T12:29:55;99265.13;;;8.96;100.00
24762;BME280;12865;51.934;10.330;2024-02-04T12:32:41;99265.97;;;8.96;100.00
24762;BME280;12865;51.934;10.330;2024-02-04T12:35:27;99263.44;;;8.95;100.00
24762;BME280;12865;51.934;10.330;2024-02-04T12:38:16;99253.38;;;8.98;100.00
24762;BME280;12865;51.934;10.330;2024-02-04T12:41:03;99257.72;;;8.99;100.00
24762;BME280;12865;51.934;10.330;2024-02-04T12:43:56;99247.03;;;9.11;100.00
24762;BME280;12865;51.934;10.330;2024-02-04T12:46:42;99257.91;;;9.07;100.00
24762;BME280;12865;51.934;10.330;2024-02-04T12:49:28;99243.31;;;9.02;100.00
24762;BME280;12865;51.934;10.330;2024-02-04T12:52:13;99250.06;;;9.06;100.00
24762;BME280;12865;51.934;10.330;2024-02-04T12:54:59;99242.81;;;9.08;100.00
24762;BME280;12865;51.934;10.330;2024-02-04T12:57:45;99231.53;;;8.95;100.00
24762;BME280;12865;51.934;10.330;2024-02-04T13:00:31;99240.66;;;9.02;100.00
24762;BME280;12865;51.934;10.330;2024-02-04T13:03:18;99240.41;;;9.05;100.00
24762;BME280;12865;51.934;10.330;2024-02-04T13:06:03;99251.75;;;9.07;100.00
24762;BME280;12865;51.934;10.330;2024-02-04T13:08:54;99233.97;;;9.07;100.00
24762;BME280;12865;51.934;10.330;2024-02-04T13:11:43;99236.75;;;9.06;100.00
24762;BME280;12865;51.934;10.330;2024-02-04T13:14:29;99226.22;;;8.95;100.00
24762;BME280;12865;51.934;10.330;2024-02-04T13:17:15;99227.28;;;8.92;100.00
24762;BME280;12865;51.934;10.330;2024-02-04T13:20:00;99224.72;;;9.02;100.00
24762;BME280;12865;51.934;10.330;2024-02-04T13:22:46;99205.66;;;8.97;100.00
24762;BME280;12865;51.934;10.330;2024-02-04T13:25:32;99205.47;;;8.89;100.00
24762;BME280;12865;51.934;10.330;2024-02-04T13:28:17;99216.13;;;8.98;100.00
24762;BME280;12865;51.934;10.330;2024-02-04T13:31:04;99203.50;;;8.91;100.00
24762;BME280;12865;51.934;10.330;2024-02-04T13:33:50;99193.25;;;8.86;100.00
24762;BME280;12865;51.934;10.330;2024-02-04T13:36:35;99189.63;;;8.87;100.00
24762;BME280;12865;51.934;10.330;2024-02-04T13:39:21;99184.31;;;8.87;100.00
24762;BME280;12865;51.934;10.330;2024-02-04T13:42:07;99187.72;;;8.99;100.00
24762;BME280;12865;51.934;10.330;2024-02-04T13:44:53;99184.50;;;8.95;100.00
24762;BME280;12865;51.934;10.330;2024-02-04T13:47:38;99194.88;;;8.98;100.00
24762;BME280;12865;51.934;10.330;2024-02-04T13:50:24;99191.69;;;9.04;100.00
24762;BME280;12865;51.934;10.330;2024-02-04T13:53:10;99181.13;;;8.93;100.00
24762;BME280;12865;51.934;10.330;2024-02-04T13:55:56;99181.88;;;9.05;100.00
24762;BME280;12865;51.934;10.330;2024-02-04T13:58:42;99188.34;;;9.02;100.00
24762;BME280;12865;51.934;10.330;2024-02-04T14:01:28;99186.03;;;8.98;100.00
24762;BME280;12865;51.934;10.330;2024-02-04T14:04:13;99188.47;;;9.01;100.00
24762;BME280;12865;51.934;10.330;2024-02-04T14:06:59;99181.31;;;9.01;100.00
24762;BME280;12865;51.934;10.330;2024-02-04T14:09:45;99177.22;;;8.97;100.00
24762;BME280;12865;51.934;10.330;2024-02-04T14:12:31;99187.28;;;8.94;100.00
24762;BME280;12865;51.934;10.330;2024-02-04T14:15:17;99185.06;;;8.99;100.00
24762;BME280;12865;51.934;10.330;2024-02-04T14:18:03;99193.44;;;8.94;100.00
24762;BME280;12865;51.934;10.330;2024-02-04T14:20:48;99167.91;;;9.03;100.00
24762;BME280;12865;51.934;10.330;2024-02-04T14:23:34;99160.50;;;9.06;100.00
24762;BME280;12865;51.934;10.330;2024-02-04T14:26:20;99163.78;;;9.20;100.00
24762;BME280;12865;51.934;10.330;2024-02-04T14:29:06;99152.69;;;9.15;100.00
24762;BME280;12865;51.934;10.330;2024-02-04T14:31:53;99161.97;;;9.20;100.00
24762;BME280;12865;51.934;10.330;2024-02-04T14:34:38;99161.97;;;9.20;100.00
24762;BME280;12865;51.934;10.330;2024-02-04T14:37:24;99141.97;;;9.26;100.00
24762;BME280;12865;51.934;10.330;2024-02-04T14:40:10;99133.13;;;9.25;100.00